createdAt,value
2019-02-05T00:01:43.067Z,190.67
2019-02-05T00:04:14.748Z,103.27
2019-02-05T00:06:46.523Z,63.40
2019-02-05T00:09:18.203Z,71.30
2019-02-05T00:11:49.908Z,66.17
2019-02-05T00:14:21.595Z,68.30
2019-02-05T00:16:53.389Z,70.67
2019-02-05T00:19:25.060Z,52.60
2019-02-05T00:21:56.737Z,78.93
2019-02-05T00:24:28.432Z,55.30
2019-02-05T00:27:00.489Z,62.93
2019-02-05T00:29:32.169Z,153.10
2019-02-05T00:32:03.789Z,89.20
2019-02-05T00:34:35.391Z,89.53
2019-02-05T00:37:07.119Z,51.40
2019-02-05T00:39:39.461Z,70.63
2019-02-05T00:42:11.356Z,47.43
2019-02-05T00:44:43.314Z,54.00
2019-02-05T00:47:15.011Z,41.77
2019-02-05T00:49:46.602Z,43.93
2019-02-05T00:52:18.557Z,44.27
2019-02-05T00:54:50.152Z,43.13
2019-02-05T00:57:21.859Z,42.40
2019-02-05T00:59:53.524Z,39.07
2019-02-05T01:02:25.141Z,57.07
2019-02-05T01:04:57.105Z,88.00
2019-02-05T01:07:28.813Z,42.03
2019-02-05T01:10:00.492Z,39.87
2019-02-05T01:12:32.202Z,42.80
2019-02-05T01:15:04.430Z,33.70
2019-02-05T01:17:37.613Z,35.00
2019-02-05T01:20:11.938Z,40.57
2019-02-05T01:22:43.651Z,43.73
2019-02-05T01:25:16.993Z,49.27
2019-02-05T01:27:48.699Z,37.43
2019-02-05T01:30:22.396Z,36.47
2019-02-05T01:32:54.098Z,40.03
2019-02-05T01:35:25.791Z,41.23
2019-02-05T01:37:57.504Z,37.50
2019-02-05T01:40:29.499Z,37.30
2019-02-05T01:43:01.213Z,43.10
2019-02-05T01:45:32.925Z,45.60
2019-02-05T01:48:04.628Z,38.60
2019-02-05T01:50:36.315Z,43.47
2019-02-05T01:53:08.302Z,46.63
2019-02-05T01:55:40.074Z,41.27
2019-02-05T01:58:11.758Z,42.63
2019-02-05T02:00:43.366Z,39.80
2019-02-05T02:03:15.107Z,38.67
2019-02-05T02:05:47.319Z,38.27
2019-02-05T02:08:19.017Z,38.83
2019-02-05T02:10:50.728Z,40.83
2019-02-05T02:13:22.420Z,37.67
2019-02-05T02:15:54.121Z,37.83
2019-02-05T02:18:26.092Z,39.30
2019-02-05T02:20:57.700Z,91.23
2019-02-05T02:23:29.406Z,52.33
2019-02-05T02:26:01.093Z,65.83
2019-02-05T02:28:32.817Z,47.17
2019-02-05T02:31:04.682Z,63.13
2019-02-05T02:33:36.449Z,42.20
2019-02-05T02:36:08.140Z,36.97
2019-02-05T02:38:40.849Z,42.87
2019-02-05T02:41:13.045Z,38.37
2019-02-05T02:43:44.771Z,39.40
2019-02-05T02:46:16.472Z,33.80
2019-02-05T02:48:48.191Z,40.10
2019-02-05T02:51:19.858Z,39.20
2019-02-05T02:53:51.552Z,34.90
2019-02-05T02:56:23.243Z,34.90
2019-02-05T02:58:54.962Z,36.63
2019-02-05T03:01:26.763Z,36.73
2019-02-05T03:03:58.479Z,36.33
2019-02-05T03:06:30.150Z,38.63
2019-02-05T03:09:02.147Z,35.83
2019-02-05T03:11:35.433Z,42.67
2019-02-05T03:14:08.118Z,48.03
2019-02-05T03:16:40.087Z,41.13
2019-02-05T03:19:11.856Z,39.20
2019-02-05T03:21:44.303Z,37.23
2019-02-05T03:24:16.293Z,38.03
2019-02-05T03:26:48.061Z,40.80
2019-02-05T03:29:19.755Z,43.03
2019-02-05T03:31:51.446Z,45.77
2019-02-05T03:34:23.086Z,46.73
2019-02-05T03:36:54.936Z,40.17
2019-02-05T03:39:26.647Z,42.33
2019-02-05T03:41:58.324Z,47.73
2019-02-05T03:44:30.041Z,46.10
2019-02-05T03:47:01.772Z,42.23
2019-02-05T03:49:33.834Z,44.17
2019-02-05T03:52:14.761Z,64.67
2019-02-05T03:55:38.602Z,48.33
2019-02-05T03:58:43.420Z,56.83
2019-02-05T04:01:49.371Z,69.97
2019-02-05T04:05:05.900Z,57.13
2019-02-05T04:08:22.173Z,63.93
2019-02-05T04:11:49.851Z,58.97
2019-02-05T04:15:10.753Z,61.13
2019-02-05T04:18:38.473Z,40.23
2019-02-05T04:22:01.037Z,36.90
2019-02-05T04:25:13.607Z,44.57
2019-02-05T04:28:38.273Z,44.60
2019-02-05T04:31:50.396Z,47.03
2019-02-05T04:35:10.572Z,47.90
2019-02-05T04:38:15.719Z,42.83
2019-02-05T04:41:14.266Z,101.80
2019-02-05T04:44:15.860Z,56.73
2019-02-05T04:47:33.635Z,53.10
2019-02-05T04:50:13.908Z,124.67
2019-02-05T04:53:20.186Z,68.07
2019-02-05T04:56:15.147Z,61.83
2019-02-05T04:59:22.398Z,61.97
2019-02-05T05:02:22.604Z,62.00
2019-02-05T05:05:31.697Z,43.73
2019-02-05T05:08:38.777Z,66.60
2019-02-05T05:11:10.455Z,86.77
2019-02-05T05:13:42.517Z,57.53
2019-02-05T05:16:14.342Z,44.70
2019-02-05T05:18:46.279Z,39.27
2019-02-05T05:21:18.072Z,43.50
2019-02-05T05:23:50.014Z,50.03
2019-02-05T05:26:21.976Z,64.37
2019-02-05T05:28:53.759Z,61.20
2019-02-05T05:31:25.388Z,58.87
2019-02-05T05:33:57.098Z,60.47
2019-02-05T05:36:28.802Z,47.80
2019-02-05T05:39:00.882Z,49.00
2019-02-05T05:41:34.135Z,78.20
2019-02-05T05:44:05.849Z,91.70
2019-02-05T05:46:37.653Z,109.20
2019-02-05T05:49:09.453Z,110.67
2019-02-05T05:51:41.494Z,101.33
2019-02-05T05:54:13.507Z,86.83
2019-02-05T05:56:45.189Z,72.00
2019-02-05T05:59:16.977Z,69.03
2019-02-05T06:01:48.760Z,61.93
2019-02-05T06:04:20.487Z,64.00
2019-02-05T06:06:52.263Z,93.00
2019-02-05T06:09:24.976Z,105.20
2019-02-05T06:11:56.663Z,83.53
2019-02-05T06:14:28.357Z,80.90
2019-02-05T06:16:59.995Z,71.33
2019-02-05T06:19:31.978Z,54.47
2019-02-05T06:22:03.678Z,59.23
2019-02-05T06:24:35.305Z,73.90
2019-02-05T06:27:06.995Z,81.60
2019-02-05T06:29:38.802Z,89.17
2019-02-05T06:32:10.750Z,88.37
2019-02-05T06:34:42.474Z,91.17
2019-02-05T06:37:14.331Z,83.53
2019-02-05T06:39:46.261Z,70.50
2019-02-05T06:42:17.974Z,85.13
2019-02-05T06:44:49.977Z,91.70
2019-02-05T06:47:21.703Z,96.83
2019-02-05T06:49:53.645Z,77.93
2019-02-05T06:52:25.363Z,73.57
2019-02-05T06:54:57.301Z,68.57
2019-02-05T06:57:29.189Z,50.80
2019-02-05T07:00:00.806Z,89.30
2019-02-05T07:02:32.695Z,83.90
2019-02-05T07:05:04.368Z,184.23
2019-02-05T07:07:36.216Z,179.20
2019-02-05T07:10:10.827Z,117.17
2019-02-05T07:12:42.473Z,97.47
2019-02-05T07:15:15.158Z,92.37
2019-02-05T07:17:49.919Z,80.70
2019-02-05T07:20:20.230Z,60.67
2019-02-05T07:22:52.350Z,53.50
2019-02-05T07:25:28.394Z,56.93
2019-02-05T07:28:00.552Z,63.73
2019-02-05T07:30:32.707Z,90.73
2019-02-05T07:33:04.403Z,68.97
2019-02-05T07:35:36.165Z,75.30
2019-02-05T07:38:07.884Z,101.87
2019-02-05T07:40:39.661Z,112.03
2019-02-05T07:43:11.837Z,106.93
2019-02-05T07:45:43.520Z,66.03
2019-02-05T07:48:15.173Z,64.03
2019-02-05T07:50:47.224Z,77.73
2019-02-05T07:53:18.941Z,67.57
2019-02-05T07:55:50.637Z,65.00
2019-02-05T07:58:23.320Z,57.67
2019-02-05T08:00:55.089Z,58.20
2019-02-05T08:03:26.892Z,46.40
2019-02-05T08:05:58.790Z,44.10
2019-02-05T08:08:30.518Z,52.60
2019-02-05T08:11:02.381Z,59.07
2019-02-05T08:13:34.134Z,47.13
2019-02-05T08:16:05.890Z,53.80
2019-02-05T08:18:37.586Z,54.10
2019-02-05T08:21:09.539Z,54.23
2019-02-05T08:23:41.445Z,54.27
2019-02-05T08:26:13.396Z,59.37
2019-02-05T08:28:45.167Z,58.30
2019-02-05T08:31:16.894Z,50.57
2019-02-05T08:33:48.863Z,66.00
2019-02-05T08:36:21.543Z,55.03
2019-02-05T08:38:53.340Z,68.67
2019-02-05T08:41:24.955Z,66.43
2019-02-05T08:43:56.669Z,81.37
2019-02-05T08:46:28.403Z,79.83
2019-02-05T08:49:00.203Z,77.77
2019-02-05T08:51:31.866Z,81.20
2019-02-05T08:54:03.633Z,68.97
2019-02-05T08:56:35.536Z,52.20
2019-02-05T08:59:07.318Z,50.97
2019-02-05T09:01:39.513Z,45.63
2019-02-05T09:04:11.401Z,45.57
2019-02-05T09:06:43.348Z,55.53
2019-02-05T09:09:15.139Z,58.70
2019-02-05T09:11:46.913Z,53.40
2019-02-05T09:14:18.521Z,52.70
2019-02-05T09:16:50.148Z,47.73
2019-02-05T09:19:21.805Z,53.27
2019-02-05T09:21:53.574Z,48.63
2019-02-05T09:24:25.302Z,59.87
2019-02-05T09:27:06.025Z,55.33
2019-02-05T09:29:37.736Z,56.90
2019-02-05T09:32:09.555Z,47.00
2019-02-05T09:34:41.404Z,64.13
2019-02-05T09:37:13.316Z,51.57
2019-02-05T09:39:45.015Z,41.07
2019-02-05T09:42:16.620Z,45.73
2019-02-05T09:44:48.378Z,41.73
2019-02-05T09:47:20.033Z,57.90
2019-02-05T09:49:51.652Z,46.97
2019-02-05T09:52:23.318Z,43.77
2019-02-05T09:54:55.284Z,36.77
2019-02-05T09:57:27.020Z,44.47
2019-02-05T09:59:58.728Z,41.23
2019-02-05T10:02:30.354Z,42.57
2019-02-05T10:05:02.068Z,42.93
2019-02-05T10:07:34.009Z,44.03
2019-02-05T10:10:06.171Z,37.43
2019-02-05T10:12:37.842Z,50.93
2019-02-05T10:15:13.067Z,70.73
2019-02-05T10:17:44.774Z,42.30
2019-02-05T10:20:16.617Z,47.90
2019-02-05T10:22:48.430Z,44.67
2019-02-05T10:25:20.206Z,44.73
2019-02-05T10:27:51.813Z,48.17
2019-02-05T10:30:25.894Z,36.57
2019-02-05T10:32:57.687Z,39.47
2019-02-05T10:35:29.397Z,30.53
2019-02-05T10:38:01.082Z,33.07
2019-02-05T10:40:33.845Z,27.23
2019-02-05T10:43:05.856Z,32.30
2019-02-05T10:45:37.529Z,25.20
2019-02-05T10:48:10.383Z,29.40
2019-02-05T10:50:42.084Z,32.20
2019-02-05T10:53:13.910Z,30.23
2019-02-05T10:55:45.550Z,37.90
2019-02-05T10:58:17.213Z,36.57
2019-02-05T11:00:49.109Z,40.87
2019-02-05T11:03:20.885Z,33.10
2019-02-05T11:05:52.676Z,27.70
2019-02-05T11:08:23.302Z,26.67
2019-02-05T11:10:54.904Z,34.10
2019-02-05T11:13:26.670Z,31.90
2019-02-05T11:15:58.392Z,31.47
2019-02-05T11:18:30.510Z,23.97
2019-02-05T11:21:04.310Z,30.93
2019-02-05T11:23:35.693Z,133.37
2019-02-05T11:26:07.419Z,33.57
2019-02-05T11:28:39.492Z,32.10
2019-02-05T11:31:11.350Z,26.53
2019-02-05T11:33:43.280Z,34.27
2019-02-05T11:36:14.956Z,26.37
2019-02-05T11:38:46.650Z,27.47
2019-02-05T11:41:18.290Z,23.30
2019-02-05T11:43:51.059Z,28.33
2019-02-05T11:46:22.864Z,20.97
2019-02-05T11:48:54.972Z,18.90
2019-02-05T11:51:26.678Z,19.73
2019-02-05T11:53:58.373Z,56.83
2019-02-05T11:56:30.082Z,60.73
2019-02-05T11:59:01.753Z,62.23
2019-02-05T12:01:39.023Z,27.23
2019-02-05T12:04:08.619Z,19.50
2019-02-05T12:06:40.518Z,21.87
2019-02-05T12:09:24.156Z,16.83
2019-02-05T12:11:56.002Z,21.80
2019-02-05T12:14:28.096Z,23.03
2019-02-05T12:16:59.860Z,22.10
2019-02-05T12:19:31.565Z,19.73
2019-02-05T12:22:03.259Z,14.40
2019-02-05T12:24:34.942Z,17.00
2019-02-05T12:27:06.552Z,28.30
2019-02-05T12:29:38.235Z,41.93
2019-02-05T12:32:10.154Z,28.77
2019-02-05T12:34:43.289Z,24.90
2019-02-05T12:37:14.911Z,24.97
2019-02-05T12:39:46.614Z,87.80
2019-02-05T12:42:18.398Z,36.23
2019-02-05T12:44:50.085Z,21.30
2019-02-05T12:47:22.077Z,27.17
2019-02-05T12:49:53.790Z,33.07
2019-02-05T12:52:25.449Z,35.63
2019-02-05T12:54:57.137Z,33.80
2019-02-05T12:57:28.778Z,29.03
2019-02-05T13:00:00.927Z,29.73
2019-02-05T13:02:32.942Z,31.03
2019-02-05T13:05:04.629Z,21.37
2019-02-05T13:07:36.322Z,20.90
2019-02-05T13:10:09.696Z,20.93
2019-02-05T13:12:41.681Z,16.50
2019-02-05T13:15:13.520Z,16.50
2019-02-05T13:17:46.292Z,16.80
2019-02-05T13:20:20.694Z,17.77
2019-02-05T13:22:52.439Z,24.73
2019-02-05T13:25:25.564Z,19.37
2019-02-05T13:27:57.262Z,25.30
2019-02-05T13:30:30.524Z,28.00
2019-02-05T13:33:02.244Z,133.67
2019-02-05T13:35:34.306Z,94.63
2019-02-05T13:38:06.378Z,120.47
2019-02-05T13:40:38.074Z,144.10
2019-02-05T13:43:10.039Z,46.40
2019-02-05T13:45:41.759Z,28.33
2019-02-05T13:48:13.840Z,18.97
2019-02-05T13:50:45.631Z,29.80
2019-02-05T13:53:17.400Z,18.80
2019-02-05T13:55:49.092Z,27.70
2019-02-05T13:58:20.804Z,21.50
2019-02-05T14:00:54.554Z,18.43
2019-02-05T14:03:26.226Z,24.33
2019-02-05T14:05:57.911Z,25.07
2019-02-05T14:08:29.598Z,31.00
2019-02-05T14:11:01.300Z,35.17
2019-02-05T14:13:33.288Z,46.47
2019-02-05T14:16:04.977Z,21.53
2019-02-05T14:18:36.708Z,119.90
2019-02-05T14:21:08.450Z,270.20
2019-02-05T14:23:40.159Z,463.03
2019-02-05T14:26:12.144Z,116.63
2019-02-05T14:28:43.854Z,183.30
2019-02-05T14:31:15.569Z,182.77
2019-02-05T14:33:47.273Z,46.83
2019-02-05T14:36:18.892Z,41.87
2019-02-05T14:38:50.980Z,19.47
2019-02-05T14:41:22.600Z,20.07
2019-02-05T14:43:54.320Z,22.63
2019-02-05T14:46:25.976Z,16.90
2019-02-05T14:48:57.684Z,19.93
2019-02-05T14:51:29.651Z,15.63
2019-02-05T14:54:01.400Z,20.10
2019-02-05T14:56:33.140Z,19.53
2019-02-05T14:59:04.888Z,17.30
2019-02-05T15:01:43.064Z,21.13
2019-02-05T15:04:10.176Z,19.20
2019-02-05T15:06:41.856Z,15.63
2019-02-05T15:09:13.550Z,17.00
2019-02-05T15:11:45.216Z,15.80
2019-02-05T15:14:16.916Z,16.83
2019-02-05T15:16:48.596Z,13.97
2019-02-05T15:19:20.307Z,14.53
2019-02-05T15:21:52.005Z,18.57
2019-02-05T15:24:23.688Z,21.33
2019-02-05T15:26:55.363Z,15.47
2019-02-05T15:29:27.043Z,19.10
2019-02-05T15:31:58.707Z,22.77
2019-02-05T15:34:30.669Z,17.20
2019-02-05T15:37:02.368Z,22.60
2019-02-05T15:39:34.088Z,56.83
2019-02-05T15:42:05.754Z,16.27
2019-02-05T15:44:37.458Z,17.00
2019-02-05T15:47:09.152Z,18.80
2019-02-05T15:49:41.274Z,18.83
2019-02-05T15:52:13.214Z,20.73
2019-02-05T15:54:44.902Z,27.90
2019-02-05T15:57:16.610Z,29.27
2019-02-05T15:59:48.333Z,26.53
2019-02-05T16:02:20.021Z,27.87
2019-02-05T16:04:51.712Z,19.57
2019-02-05T16:07:23.404Z,20.63
2019-02-05T16:09:55.073Z,17.13
2019-02-05T16:12:26.766Z,19.90
2019-02-05T16:14:58.386Z,18.07
2019-02-05T16:17:30.088Z,20.90
2019-02-05T16:20:01.783Z,37.23
2019-02-05T16:22:34.595Z,75.57
2019-02-05T16:25:07.483Z,72.80
2019-02-05T16:27:39.406Z,37.30
2019-02-05T16:30:17.391Z,23.67
2019-02-05T16:32:49.076Z,22.47
2019-02-05T16:35:20.721Z,25.70
2019-02-05T16:37:53.222Z,32.33
2019-02-05T16:40:26.233Z,58.50
2019-02-05T16:42:58.302Z,30.97
2019-02-05T16:45:30.030Z,27.47
2019-02-05T16:48:01.708Z,44.97
2019-02-05T16:50:35.903Z,24.60
2019-02-05T16:53:08.366Z,25.93
2019-02-05T16:55:40.190Z,49.13
2019-02-05T16:58:11.878Z,40.77
2019-02-05T17:00:43.559Z,27.87
2019-02-05T17:03:15.644Z,24.03
2019-02-05T17:05:47.340Z,30.33
2019-02-05T17:08:19.028Z,29.23
2019-02-05T17:10:50.721Z,31.30
2019-02-05T17:13:22.413Z,31.70
2019-02-05T17:15:54.128Z,30.20
2019-02-05T17:18:25.826Z,35.67
2019-02-05T17:20:57.578Z,28.80
2019-02-05T17:23:29.594Z,25.77
2019-02-05T17:26:01.369Z,27.93
2019-02-05T17:28:33.415Z,19.80
2019-02-05T17:31:05.136Z,25.27
2019-02-05T17:33:37.862Z,24.83
2019-02-05T17:36:10.124Z,25.07
2019-02-05T17:38:41.745Z,27.83
2019-02-05T17:41:13.464Z,23.37
2019-02-05T17:43:46.334Z,21.57
2019-02-05T17:46:18.181Z,29.63
2019-02-05T17:48:51.318Z,26.90
2019-02-05T17:51:23.235Z,27.40
2019-02-05T17:53:56.409Z,27.07
2019-02-05T17:56:28.411Z,28.53
2019-02-05T17:59:00.079Z,26.43
2019-02-05T18:01:31.797Z,28.97
2019-02-05T18:04:03.502Z,25.60
2019-02-05T18:06:35.196Z,22.97
2019-02-05T18:09:08.283Z,28.43
2019-02-05T18:11:42.271Z,26.90
2019-02-05T18:14:15.175Z,26.83
2019-02-05T18:16:46.854Z,22.20
2019-02-05T18:19:18.535Z,23.63
2019-02-05T18:21:50.582Z,24.00
2019-02-05T18:24:22.203Z,28.80
2019-02-05T18:26:54.055Z,28.00
2019-02-05T18:29:28.866Z,23.77
2019-02-05T18:32:00.610Z,30.77
2019-02-05T18:34:32.354Z,26.27
2019-02-05T18:37:05.278Z,38.13
2019-02-05T18:39:39.952Z,58.60
2019-02-05T18:42:11.070Z,47.47
2019-02-05T18:44:44.313Z,27.20
2019-02-05T18:47:16.272Z,25.60
2019-02-05T18:49:48.036Z,23.23
2019-02-05T18:52:20.345Z,28.03
2019-02-05T18:54:54.968Z,25.87
2019-02-05T18:57:30.163Z,20.50
2019-02-05T19:00:02.246Z,24.63
2019-02-05T19:02:35.956Z,31.93
2019-02-05T19:05:10.440Z,24.20
2019-02-05T19:07:44.582Z,27.47
2019-02-05T19:10:18.503Z,26.43
2019-02-05T19:12:51.714Z,27.97
2019-02-05T19:15:25.505Z,29.83
2019-02-05T19:17:57.429Z,31.47
2019-02-05T19:20:32.236Z,31.43
2019-02-05T19:23:04.559Z,37.23
2019-02-05T19:25:55.183Z,34.40
2019-02-05T19:28:36.122Z,59.00
2019-02-05T19:31:17.303Z,34.47
2019-02-05T19:33:49.176Z,35.57
2019-02-05T19:36:20.900Z,38.50
2019-02-05T19:38:53.681Z,37.30
2019-02-05T19:41:25.387Z,37.40
2019-02-05T19:43:57.103Z,39.83
2019-02-05T19:46:46.349Z,50.20
2019-02-05T19:49:30.320Z,61.03
2019-02-05T19:52:02.443Z,49.07
2019-02-05T19:54:34.162Z,38.43
2019-02-05T19:57:05.951Z,55.57
2019-02-05T19:59:37.786Z,39.97
2019-02-05T20:02:10.790Z,43.53
2019-02-05T20:04:43.127Z,33.90
2019-02-05T20:07:15.034Z,36.47
2019-02-05T20:09:47.973Z,37.83
2019-02-05T20:12:22.471Z,36.37
2019-02-05T20:14:55.191Z,33.27
2019-02-05T20:17:27.185Z,32.90
2019-02-05T20:19:59.129Z,34.40
2019-02-05T20:22:30.841Z,41.37
2019-02-05T20:25:04.488Z,32.60
2019-02-05T20:27:38.832Z,31.07
2019-02-05T20:30:12.568Z,30.83
2019-02-05T20:32:44.315Z,28.37
2019-02-05T20:35:16.246Z,39.43
2019-02-05T20:37:48.384Z,54.57
2019-02-05T20:40:20.249Z,45.97
2019-02-05T20:42:52.512Z,35.33
2019-02-05T20:45:25.602Z,27.77
2019-02-05T20:47:57.640Z,31.87
2019-02-05T20:50:29.469Z,33.90
2019-02-05T20:53:13.644Z,32.07
2019-02-05T20:55:41.807Z,36.83
2019-02-05T20:58:13.783Z,25.40
2019-02-05T21:00:46.567Z,37.93
2019-02-05T21:03:19.602Z,29.27
2019-02-05T21:05:51.386Z,31.90
2019-02-05T21:08:23.465Z,28.30
2019-02-05T21:10:57.726Z,30.20
2019-02-05T21:13:29.469Z,34.47
2019-02-05T21:16:01.677Z,51.93
2019-02-05T21:18:33.460Z,27.90
2019-02-05T21:21:08.736Z,30.90
2019-02-05T21:23:40.927Z,37.37
2019-02-05T21:26:12.769Z,34.83
2019-02-05T21:28:44.600Z,30.90
2019-02-05T21:31:16.453Z,40.73
2019-02-05T21:33:48.267Z,34.43
2019-02-05T21:36:20.617Z,57.40
2019-02-05T21:38:52.694Z,30.50
2019-02-05T21:41:24.520Z,33.57
2019-02-05T21:43:58.224Z,36.13
2019-02-05T21:46:31.585Z,31.80
2019-02-05T21:49:03.336Z,32.63
2019-02-05T21:51:40.480Z,35.83
2019-02-05T21:54:09.722Z,37.80
2019-02-05T21:56:41.562Z,36.27
2019-02-05T21:59:14.810Z,44.30
2019-02-05T22:01:46.675Z,43.83
2019-02-05T22:04:26.714Z,46.33
2019-02-05T22:06:51.857Z,34.73
2019-02-05T22:09:23.611Z,51.23
2019-02-05T22:11:55.488Z,32.27
2019-02-05T22:14:28.253Z,42.43
2019-02-05T22:16:59.935Z,31.40
2019-02-05T22:19:31.690Z,40.60
2019-02-05T22:22:03.448Z,54.30
2019-02-05T22:24:35.252Z,33.83
2019-02-05T22:27:07.240Z,41.53
2019-02-05T22:29:38.860Z,40.00
2019-02-05T22:32:10.653Z,41.53
2019-02-05T22:34:42.485Z,35.73
2019-02-05T22:37:14.370Z,32.40
2019-02-05T22:39:46.241Z,48.93
2019-02-05T22:42:17.931Z,38.80
2019-02-05T22:44:49.783Z,45.43
2019-02-05T22:47:21.543Z,40.50
2019-02-05T22:49:53.315Z,41.90
2019-02-05T22:52:26.117Z,105.10
2019-02-05T22:54:57.799Z,40.10
2019-02-05T22:57:31.662Z,35.17
2019-02-05T23:00:02.910Z,44.33
2019-02-05T23:02:39.040Z,37.33
2019-02-05T23:05:33.872Z,44.27
2019-02-05T23:08:05.687Z,48.67
2019-02-05T23:11:03.330Z,33.20
2019-02-05T23:13:34.359Z,35.50
2019-02-05T23:16:23.494Z,54.67
2019-02-05T23:18:55.285Z,28.77
2019-02-05T23:21:27.079Z,35.03
2019-02-05T23:23:59.172Z,57.33
2019-02-05T23:26:31.893Z,32.93
2019-02-05T23:29:03.609Z,32.93
2019-02-05T23:31:35.639Z,29.97
2019-02-05T23:34:07.375Z,32.07
2019-02-05T23:36:39.483Z,32.33
2019-02-05T23:39:11.391Z,27.23
2019-02-05T23:41:43.264Z,31.77
2019-02-05T23:44:14.934Z,31.17
2019-02-05T23:46:46.697Z,29.67
2019-02-05T23:49:18.609Z,32.17
2019-02-05T23:51:50.226Z,28.70
2019-02-05T23:54:23.040Z,36.37
2019-02-05T23:56:54.798Z,27.27
2019-02-05T23:59:26.520Z,25.53
